Time,TemperatureF,DewpointF,PressureIn,WindDirection,WindDirectionDegrees,WindSpeedMPH,WindSpeedGustMPH,Humidity,HourlyPrecipIn,Conditions,Clouds,dailyrainin,SolarRadiationWatts/m^2,SoftwareType,DateUTC
2013-08-14 00:42:00,66.0,46.0,-100.00,ESE,123,4.0,7.0,48,0.00,,,0.00,0.000000,,2013-08-14 06:42:00,
2013-08-14 00:52:00,66.0,46.0,-100.00,ESE,123,4.0,7.0,48,0.00,,,0.00,0.000000,,2013-08-14 06:52:00,
2013-08-14 01:21:00,64.0,45.0,-100.00,SE,124,6.0,8.0,51,0.00,,,0.00,0.000000,,2013-08-14 07:21:00,
2013-08-14 01:31:00,64.0,45.0,-100.00,SE,124,6.0,8.0,51,0.00,,,0.00,0.000000,,2013-08-14 07:31:00,
2013-08-14 01:41:00,64.0,45.0,-100.00,SE,124,6.0,8.0,51,0.00,,,0.00,0.000000,,2013-08-14 07:41:00,
2013-08-14 01:52:00,64.0,45.0,-100.00,SE,124,6.0,8.0,51,0.00,,,0.00,0.000000,,2013-08-14 07:52:00,
2013-08-14 02:21:00,63.0,47.0,-100.00,ESE,113,3.0,7.0,55,0.00,,,0.00,0.000000,,2013-08-14 08:21:00,
2013-08-14 02:31:00,63.0,47.0,-100.00,ESE,113,3.0,7.0,55,0.00,,,0.00,0.000000,,2013-08-14 08:31:00,
2013-08-14 02:42:00,63.0,47.0,-100.00,ESE,113,3.0,7.0,55,0.00,,,0.00,0.000000,,2013-08-14 08:42:00,
2013-08-14 02:51:00,63.0,47.0,-100.00,ESE,113,3.0,7.0,55,0.00,,,0.00,0.000000,,2013-08-14 08:51:00,
2013-08-14 03:43:00,59.0,45.0,-100.00,SE,134,6.0,7.0,60,0.00,,,0.00,0.000000,,2013-08-14 09:43:00,
2013-08-14 03:53:00,59.0,45.0,-100.00,SE,134,6.0,7.0,60,0.00,,,0.00,0.000000,,2013-08-14 09:53:00,
2013-08-14 04:22:00,59.0,45.0,-100.00,SE,131,6.0,10.0,60,0.00,,,0.00,0.000000,,2013-08-14 10:22:00,
2013-08-14 04:32:00,59.0,45.0,-100.00,SE,131,6.0,10.0,60,0.00,,,0.00,0.000000,,2013-08-14 10:32:00,
2013-08-14 04:42:00,59.0,45.0,-100.00,SE,131,6.0,10.0,60,0.00,,,0.00,0.000000,,2013-08-14 10:42:00,
2013-08-14 04:52:00,59.0,45.0,-100.00,SE,131,6.0,10.0,60,0.00,,,0.00,0.000000,,2013-08-14 10:52:00,
2013-08-14 05:21:00,57.0,44.0,-100.00,SE,129,6.0,9.0,61,0.00,,,0.00,0.000000,,2013-08-14 11:21:00,
2013-08-14 05:32:00,57.0,44.0,-100.00,SE,129,6.0,9.0,61,0.00,,,0.00,0.000000,,2013-08-14 11:32:00,
2013-08-14 05:42:00,57.0,44.0,-100.00,SE,129,6.0,9.0,61,0.00,,,0.00,0.000000,,2013-08-14 11:42:00,
2013-08-14 05:51:00,57.0,44.0,-100.00,SE,129,6.0,9.0,61,0.00,,,0.00,0.000000,,2013-08-14 11:51:00,
2013-08-14 06:42:00,56.0,45.0,-100.00,SE,136,8.0,11.0,67,0.00,,,0.00,0.000000,,2013-08-14 12:42:00,
2013-08-14 06:52:00,56.0,45.0,-100.00,SE,136,8.0,11.0,67,0.00,,,0.00,0.000000,,2013-08-14 12:52:00,
2013-08-14 07:21:00,57.0,47.0,-100.00,SE,135,7.0,10.0,68,0.00,,,0.00,22.000000,,2013-08-14 13:21:00,
2013-08-14 07:31:00,57.0,47.0,-100.00,SE,135,7.0,10.0,68,0.00,,,0.00,22.000000,,2013-08-14 13:31:00,
2013-08-14 07:41:00,57.0,47.0,-100.00,SE,135,7.0,10.0,68,0.00,,,0.00,22.000000,,2013-08-14 13:41:00,
2013-08-14 07:52:00,57.0,47.0,-100.00,SE,135,7.0,10.0,68,0.00,,,0.00,22.000000,,2013-08-14 13:52:00,
2013-08-14 08:42:00,62.0,47.0,-100.00,SSE,153,8.0,11.0,58,0.00,,,0.00,163.000000,,2013-08-14 14:42:00,
2013-08-14 08:52:00,62.0,47.0,-100.00,SSE,153,8.0,11.0,58,0.00,,,0.00,163.000000,,2013-08-14 14:52:00,
2013-08-14 09:43:00,65.0,48.0,-100.00,SE,139,6.0,11.0,54,0.00,,,0.00,233.000000,,2013-08-14 15:43:00,
2013-08-14 09:56:00,65.0,48.0,-100.00,SE,139,6.0,11.0,54,0.00,,,0.00,233.000000,,2013-08-14 15:56:00,
2013-08-14 10:43:00,73.0,50.0,-100.00,South,175,5.0,7.0,45,0.00,,,0.00,360.000000,,2013-08-14 16:43:00,
2013-08-14 10:58:00,73.0,50.0,-100.00,South,175,5.0,7.0,45,0.00,,,0.00,360.000000,,2013-08-14 16:58:00,
2013-08-14 11:29:00,77.0,48.0,-100.00,NW,325,3.0,7.0,36,0.00,,,0.00,471.000000,,2013-08-14 17:29:00,
2013-08-14 11:35:00,77.0,48.0,-100.00,NW,325,3.0,7.0,36,0.00,,,0.00,471.000000,,2013-08-14 17:35:00,
2013-08-14 11:44:00,77.0,48.0,-100.00,NW,325,3.0,7.0,36,0.00,,,0.00,471.000000,,2013-08-14 17:44:00,
2013-08-14 11:55:00,77.0,48.0,-100.00,NW,325,3.0,7.0,36,0.00,,,0.00,471.000000,,2013-08-14 17:55:00,
2013-08-14 12:55:00,80.0,47.0,-100.00,North,352,5.0,9.0,32,0.00,,,0.00,509.000000,,2013-08-14 18:55:00,
2013-08-14 13:42:00,83.0,48.0,-100.00,North,351,5.0,10.0,30,0.00,,,0.00,658.000000,,2013-08-14 19:42:00,
2013-08-14 13:53:00,83.0,48.0,-100.00,North,351,5.0,10.0,30,0.00,,,0.00,658.000000,,2013-08-14 19:53:00,
2013-08-14 14:49:00,87.0,48.0,-100.00,East,82,4.0,10.0,26,0.00,,,0.00,806.000000,,2013-08-14 20:49:00,
2013-08-14 15:23:00,88.0,44.0,-100.00,NNW,347,5.0,10.0,22,0.00,,,0.00,751.000000,,2013-08-14 21:23:00,
2013-08-14 15:34:00,88.0,44.0,-100.00,NNW,347,5.0,10.0,22,0.00,,,0.00,751.000000,,2013-08-14 21:34:00,
2013-08-14 15:45:00,88.0,44.0,-100.00,NNW,347,5.0,10.0,22,0.00,,,0.00,751.000000,,2013-08-14 21:45:00,
2013-08-14 15:55:00,88.0,44.0,-100.00,NNW,347,5.0,10.0,22,0.00,,,0.00,751.000000,,2013-08-14 21:55:00,
2013-08-14 16:23:00,89.0,40.0,-100.00,North,9,5.0,11.0,18,0.00,,,0.00,691.000000,,2013-08-14 22:23:00,
2013-08-14 16:35:00,89.0,40.0,-100.00,North,9,5.0,11.0,18,0.00,,,0.00,691.000000,,2013-08-14 22:35:00,
2013-08-14 16:44:00,89.0,40.0,-100.00,North,9,5.0,11.0,18,0.00,,,0.00,691.000000,,2013-08-14 22:44:00,
2013-08-14 16:54:00,89.0,40.0,-100.00,North,9,5.0,11.0,18,0.00,,,0.00,691.000000,,2013-08-14 22:54:00,
2013-08-14 17:46:00,90.0,42.0,-100.00,NNW,339,5.0,11.0,19,0.00,,,0.00,558.000000,,2013-08-14 23:46:00,
2013-08-14 17:56:00,90.0,42.0,-100.00,NNW,339,5.0,11.0,19,0.00,,,0.00,558.000000,,2013-08-14 23:56:00,
2013-08-14 18:23:00,89.0,41.0,-100.00,NNE,13,4.0,11.0,19,0.00,,,0.00,388.000000,,2013-08-15 00:23:00,
2013-08-14 18:32:00,89.0,41.0,-100.00,NNE,13,4.0,11.0,19,0.00,,,0.00,388.000000,,2013-08-15 00:32:00,
2013-08-14 18:43:00,89.0,41.0,-100.00,NNE,13,4.0,11.0,19,0.00,,,0.00,388.000000,,2013-08-15 00:43:00,
2013-08-14 18:52:00,89.0,41.0,-100.00,NNE,13,4.0,11.0,19,0.00,,,0.00,388.000000,,2013-08-15 00:52:00,
2013-08-14 19:42:00,84.0,40.0,-100.00,NNW,343,6.0,12.0,21,0.00,,,0.00,172.000000,,2013-08-15 01:42:00,
2013-08-14 19:52:00,84.0,40.0,-100.00,NNW,343,6.0,12.0,21,0.00,,,0.00,172.000000,,2013-08-15 01:52:00,
2013-08-14 20:52:00,80.0,46.0,-100.00,NNE,27,6.0,12.0,30,0.00,,,0.00,70.000000,,2013-08-15 02:52:00,
2013-08-14 21:43:00,76.0,46.0,-100.00,NE,50,6.0,12.0,35,0.00,,,0.00,3.000000,,2013-08-15 03:43:00,
2013-08-14 21:53:00,76.0,46.0,-100.00,NE,50,6.0,12.0,35,0.00,,,0.00,3.000000,,2013-08-15 03:53:00,
2013-08-14 22:43:00,74.0,50.0,-100.00,East,82,7.0,14.0,43,0.00,,,0.00,0.000000,,2013-08-15 04:43:00,
2013-08-14 22:52:00,74.0,50.0,-100.00,East,82,7.0,14.0,43,0.00,,,0.00,0.000000,,2013-08-15 04:52:00,
2013-08-14 23:42:00,71.0,50.0,-100.00,West,267,1.0,10.0,48,0.00,,,0.00,0.000000,,2013-08-15 05:42:00,
2013-08-14 23:52:00,71.0,50.0,-100.00,West,267,1.0,10.0,48,0.00,,,0.00,0.000000,,2013-08-15 05:52:00,